Stations météo

Publicité
Cap Gris Nez, France (7004): Température de l'air & dewpoint: 22.05.2020 10:00:00 - 28.05.2020 10:00:00 (CEST)Cap Gris Nez, France (7004): Vitesse du vent & gusts: 22.05.2020 10:00:00 - 28.05.2020 10:00:00 (CEST)Cap Gris Nez, France (7004): Direction du vent: 22.05.2020 10:00:00 - 28.05.2020 10:00:00 (CEST)Cap Gris Nez, France (7004): Quantités de précipitations: 22.05.2020 10:00:00 - 28.05.2020 10:00:00 (CEST)
Date & Time tt [°C] td [°C] ff [km/h] ff [knt] fx [km/h] fx [knt] dd rr [mm]
28.05.2020 10:00:00 - - - - - - - -
28.05.2020 09:00:00 14,2 5,8 26 14 40 22 ENE 0,0
28.05.2020 08:00:00 13,2 7,2 27 14 40 21 ENE 0,0
28.05.2020 07:00:00 12,9 9,0 28 15 43 23 ENE 0,0
28.05.2020 06:00:00 12,6 11,2 31 17 46 25 NE 0,0
28.05.2020 05:00:00 12,6 11,0 32 17 44 24 NE 0,0
28.05.2020 04:00:00 12,4 10,6 34 18 49 26 NE 0,0
28.05.2020 03:00:00 11,9 10,3 39 21 50 27 NE 0,0
28.05.2020 02:00:00 11,8 10,4 36 19 44 24 NE 0,0
28.05.2020 01:00:00 12,3 10,9 34 18 46 25 NE 0,0
28.05.2020 00:00:00 12,9 11,3 28 15 38 21 NE 0,0
27.05.2020 23:00:00 13,6 10,8 21 11 29 16 NE 0,0
27.05.2020 22:00:00 14,2 10,8 22 12 30 16 ENE 0,0
27.05.2020 21:00:00 15,4 11,0 21 11 33 18 ENE 0,0
27.05.2020 20:00:00 15,2 12,1 19 10 32 17 NE 0,0
27.05.2020 19:00:00 15,2 11,8 23 12 35 19 NE 0,0
27.05.2020 18:00:00 15,2 11,6 27 15 35 19 NE 0,0
27.05.2020 17:00:00 15,3 11,3 28 15 35 19 NE 0,0
27.05.2020 16:00:00 15,6 11,2 27 15 34 18 NE 0,0
27.05.2020 15:00:00 15,6 11,6 24 13 32 17 NE 0,0
27.05.2020 14:00:00 15,4 11,4 25 14 31 17 NE 0,0
27.05.2020 13:00:00 15,2 11,6 26 14 35 19 NE 0,0
27.05.2020 12:00:00 15,2 11,6 26 14 35 19 NE 0,0
27.05.2020 11:00:00 14,7 10,9 24 13 31 17 NNE 0,0
27.05.2020 10:00:00 15,3 11,7 16 9 25 13 NE 0,0
27.05.2020 09:00:00 14,5 10,9 20 11 25 13 NE 0,0
27.05.2020 08:00:00 14,1 10,9 16 9 23 13 ENE 0,0
27.05.2020 07:00:00 13,3 11,2 19 10 27 15 ENE 0,0
27.05.2020 06:00:00 13,0 10,9 22 12 28 15 NE 0,0
27.05.2020 05:00:00 13,2 10,4 19 10 25 13 NE 0,0
27.05.2020 04:00:00 14,0 6,4 16 8 26 14 E 0,0
27.05.2020 03:00:00 14,4 7,0 19 10 29 15 E 0,0
27.05.2020 02:00:00 13,9 8,9 18 10 26 14 E 0,0
27.05.2020 01:00:00 13,9 10,1 17 9 22 12 ENE 0,0
27.05.2020 00:00:00 13,6 11,8 17 9 25 13 ENE 0,0
26.05.2020 23:00:00 13,6 11,6 14 8 24 13 NE 0,0
26.05.2020 22:00:00 14,0 10,2 10 6 15 8 NNE 0,0
26.05.2020 21:00:00 15,4 10,4 11 6 16 9 NNE 0,0
26.05.2020 20:00:00 17,7 9,3 10 6 16 8 ENE 0,0
26.05.2020 19:00:00 18,7 8,9 10 5 21 12 ENE 0,0
26.05.2020 18:00:00 17,6 7,6 11 6 20 11 ENE 0,0
26.05.2020 17:00:00 16,7 10,1 11 6 14 8 NE 0,0
26.05.2020 16:00:00 16,8 11,1 8 4 12 6 N 0,0
26.05.2020 15:00:00 16,7 10,5 5 3 10 5 NW 0,0
26.05.2020 14:00:00 16,7 10,5 6 3 12 6 W 0,0
26.05.2020 13:00:00 17,1 10,5 6 4 12 6 SW 0,0
26.05.2020 12:00:00 16,7 11,0 8 4 13 7 SW 0,0
26.05.2020 11:00:00 15,7 11,9 8 4 13 7 WSW 0,0
26.05.2020 10:00:00 16,0 11,0 8 4 14 7 SW 0,0
26.05.2020 09:00:00 16,1 9,7 9 5 14 7 SSW 0,0
26.05.2020 08:00:00 16,1 8,3 8 5 11 6 SSW 0,0
26.05.2020 07:00:00 15,2 7,7 7 4 10 6 S 0,0
26.05.2020 06:00:00 14,3 7,3 7 4 9 5 S 0,0
26.05.2020 05:00:00 14,6 7,6 6 4 10 5 SSE 0,0
26.05.2020 04:00:00 15,0 8,0 6 4 8 5 SW 0,0
26.05.2020 03:00:00 14,3 10,9 8 4 9 5 SE 0,0
26.05.2020 02:00:00 13,2 11,3 6 3 13 7 NE 0,0
26.05.2020 01:00:00 13,3 10,8 8 4 11 6 NNE 0,0
26.05.2020 00:00:00 15,8 9,9 4 2 9 5 ESE 0,0
25.05.2020 23:00:00 14,8 12,5 3 2 10 5 E 0,0
25.05.2020 22:00:00 13,9 11,6 9 5 18 10 ENE 0,0
25.05.2020 21:00:00 15,2 10,4 13 7 21 12 ENE 0,0
25.05.2020 20:00:00 16,2 10,9 14 8 18 10 NNE 0,0
25.05.2020 19:00:00 16,5 11,8 11 6 19 10 NE 0,0
25.05.2020 18:00:00 16,1 12,1 13 7 19 11 NE 0,0
25.05.2020 17:00:00 16,5 12,1 12 7 24 13 NE 0,0
25.05.2020 16:00:00 16,4 11,5 16 9 22 12 NE 0,0
25.05.2020 15:00:00 16,7 11,8 11 6 19 10 NE 0,0
25.05.2020 14:00:00 16,5 11,6 12 7 19 11 NE 0,0
25.05.2020 13:00:00 16,0 12,4 13 7 18 10 NNE 0,0
25.05.2020 12:00:00 15,8 12,2 9 5 16 9 NNE 0,0
25.05.2020 11:00:00 14,7 12,2 12 6 16 9 NE 0,0
25.05.2020 10:00:00 14,9 12,2 9 5 14 8 NE 0,0
25.05.2020 09:00:00 14,9 13,1 8 4 11 6 NE 0,0
25.05.2020 08:00:00 13,8 12,7 4 2 7 4 E 0,0
25.05.2020 07:00:00 11,7 10,8 4 2 10 5 SSE 0,0
25.05.2020 06:00:00 11,9 11,0 6 4 14 8 SW 0,0
25.05.2020 05:00:00 11,2 10,1 8 5 14 8 S 0,0
25.05.2020 04:00:00 11,5 10,6 11 6 15 8 S 0,0
25.05.2020 03:00:00 11,8 10,7 13 7 21 12 S 0,0
25.05.2020 02:00:00 12,2 11,1 14 8 29 15 S 0,0
25.05.2020 01:00:00 12,5 11,1 21 11 30 16 SSW 0,0
25.05.2020 00:00:00 12,6 11,0 19 10 29 15 S 0,0
24.05.2020 23:00:00 13,0 11,2 17 9 33 18 S 0,0
24.05.2020 22:00:00 12,7 10,9 24 13 35 19 SSW 0,0
24.05.2020 21:00:00 13,2 11,1 26 14 38 20 SW 0,0
24.05.2020 20:00:00 13,3 11,2 26 14 38 20 SSW 0,0
24.05.2020 19:00:00 13,2 11,1 31 17 41 22 SSW 0,0
24.05.2020 18:00:00 14,8 11,9 25 13 48 26 SSW 0,0
24.05.2020 17:00:00 14,4 11,7 30 16 49 26 SW 0,0
24.05.2020 16:00:00 13,4 11,1 38 20 53 28 WSW 0,0
24.05.2020 15:00:00 14,1 11,4 40 21 51 28 SW 0,0
24.05.2020 14:00:00 14,2 11,4 39 21 50 27 SW 0,0
24.05.2020 13:00:00 13,6 11,5 35 19 51 27 SW 0,0
24.05.2020 12:00:00 13,6 11,1 35 19 54 29 SW 0,0
24.05.2020 11:00:00 13,2 10,9 27 14 41 22 SW 0,0
24.05.2020 10:00:00 13,1 10,1 33 18 42 23 WSW 0,0
24.05.2020 09:00:00 12,2 9,4 31 17 41 22 WSW 0,0
24.05.2020 08:00:00 12,1 9,1 34 18 51 28 W 0,0
24.05.2020 07:00:00 12,0 9,0 40 22 52 28 W 0,0
24.05.2020 06:00:00 11,9 8,6 41 22 56 30 W 0,0
24.05.2020 05:00:00 12,1 8,4 46 25 58 32 W 0,0
24.05.2020 04:00:00 12,3 8,4 42 23 54 29 W 0,0
24.05.2020 03:00:00 12,9 9,9 38 20 56 30 W 0,0
24.05.2020 02:00:00 12,4 11,0 43 23 57 31 W 0,0
24.05.2020 01:00:00 12,4 10,8 49 26 64 35 W 0,0
24.05.2020 00:00:00 12,4 10,6 55 30 71 38 WSW 0,0
23.05.2020 23:00:00 12,2 10,3 55 30 75 40 WSW 0,0
23.05.2020 22:00:00 12,3 10,2 53 29 73 39 WSW 0,0
23.05.2020 21:00:00 12,6 10,1 55 30 78 42 WSW 0,0
23.05.2020 20:00:00 12,9 10,1 54 29 78 42 WSW 0,0
23.05.2020 19:00:00 13,3 10,3 56 30 85 46 WSW 0,0
23.05.2020 18:00:00 13,5 10,1 61 33 82 45 WSW 0,0
23.05.2020 17:00:00 13,5 10,1 57 31 78 42 WSW 0,0
23.05.2020 16:00:00 13,4 10,0 58 31 76 41 WSW 0,0
23.05.2020 15:00:00 13,6 10,4 55 30 80 43 SW 0,0
23.05.2020 14:00:00 13,7 10,5 55 30 79 42 SW 0,0
23.05.2020 13:00:00 13,6 10,6 54 29 77 42 SW 0,0
23.05.2020 12:00:00 13,4 10,6 53 29 70 38 SW 0,0
23.05.2020 11:00:00 13,1 10,5 44 24 63 34 SW 0,0
23.05.2020 10:00:00 12,8 10,7 43 23 61 33 SW 0,0
23.05.2020 09:00:00 12,5 10,7 43 23 61 33 WSW 0,0
23.05.2020 08:00:00 12,2 10,9 44 24 62 34 WSW 0,0
23.05.2020 07:00:00 12,2 10,9 47 26 63 34 WSW 0,0
23.05.2020 06:00:00 12,1 10,8 48 26 62 34 WSW 0,0
23.05.2020 05:00:00 12,2 10,9 46 25 62 33 WSW 0,0
23.05.2020 04:00:00 12,2 10,9 46 25 62 34 WSW 0,0
23.05.2020 03:00:00 12,4 11,0 46 25 62 33 WSW 0,0
23.05.2020 02:00:00 12,4 10,8 45 25 61 33 WSW 0,0
23.05.2020 01:00:00 12,5 10,9 44 24 61 33 SW 0,0
23.05.2020 00:00:00 12,6 10,8 43 23 58 31 WSW 0,0
22.05.2020 23:00:00 12,7 10,6 48 26 64 34 WSW 0,0
22.05.2020 22:00:00 12,7 10,6 45 24 61 33 WSW 0,0
22.05.2020 21:00:00 13,2 10,6 50 27 66 36 WSW 0,0
22.05.2020 20:00:00 13,8 10,8 46 25 66 36 SW 0,0
22.05.2020 19:00:00 13,7 11,0 44 24 69 38 SW 0,0
22.05.2020 18:00:00 14,1 11,1 50 27 67 36 SW 0,0
22.05.2020 17:00:00 14,7 11,5 48 26 69 38 SW 0,0
22.05.2020 16:00:00 14,5 11,5 49 26 68 37 SW 0,0
22.05.2020 15:00:00 14,8 12,3 42 23 60 32 SW 0,0
22.05.2020 14:00:00 14,4 12,8 35 19 59 32 SW 0,0
22.05.2020 13:00:00 14,3 12,8 38 21 58 32 SW 0,0
22.05.2020 12:00:00 14,1 12,7 33 18 50 27 SW 0,0
22.05.2020 11:00:00 13,9 12,5 36 20 48 26 SSW 0,0
22.05.2020 10:00:00 14,4 12,3 32 17 49 27 SSW 0,0

tt = Température de l'air
td = dewpoint
ff = Vitesse du vent
fx = gusts
dd = Direction du vent
rr = Quantités de précipitations

stations d'obs. à proximité